createdAt,value
2022-08-09T00:01:04.467Z,52.90
2022-08-09T00:04:10.862Z,53.25
2022-08-09T00:06:23.145Z,52.92
2022-08-09T00:08:49.928Z,52.81
2022-08-09T00:11:24.466Z,52.72
2022-08-09T00:13:51.313Z,52.81
2022-08-09T00:16:17.258Z,52.94
2022-08-09T00:18:52.565Z,53.34
2022-08-09T00:21:19.717Z,52.10
2022-08-09T00:23:55.884Z,53.24
2022-08-09T00:26:32.343Z,53.26
2022-08-09T00:28:59.121Z,53.84
2022-08-09T00:31:57.577Z,54.96
2022-08-09T00:34:11.817Z,54.29
2022-08-09T00:36:37.830Z,54.41
2022-08-09T00:39:06.026Z,54.69
2022-08-09T00:44:15.219Z,54.30
2022-08-09T00:44:28.857Z,54.40
2022-08-09T00:46:55.831Z,54.82
2022-08-09T00:49:22.785Z,54.90
2022-08-09T00:51:54.813Z,54.74
2022-08-09T00:54:22.232Z,55.29
2022-08-09T00:56:57.239Z,55.76
2022-08-09T00:59:41.253Z,55.63
2022-08-09T01:02:10.857Z,55.59
2022-08-09T01:04:36.908Z,55.21
2022-08-09T01:07:03.672Z,55.98
2022-08-09T01:09:36.583Z,55.01
2022-08-09T01:12:03.025Z,55.55
2022-08-09T01:14:28.965Z,55.33
2022-08-09T01:16:54.922Z,55.40
2022-08-09T01:19:40.233Z,56.58
2022-08-09T01:22:06.866Z,56.29
2022-08-09T01:24:39.130Z,56.04
2022-08-09T01:27:05.158Z,55.88
2022-08-09T01:29:41.323Z,55.65
2022-08-09T01:32:31.031Z,54.65
2022-08-09T01:34:59.236Z,55.27
2022-08-09T01:38:05.751Z,54.78
2022-08-09T01:40:23.258Z,56.09
2022-08-09T01:42:54.646Z,55.15
2022-08-09T01:45:20.590Z,54.91
2022-08-09T01:47:49.815Z,54.66
2022-08-09T01:50:15.857Z,54.85
2022-08-09T01:52:43.357Z,54.98
2022-08-09T01:55:09.427Z,54.54
2022-08-09T01:57:40.295Z,55.04
2022-08-09T02:00:34.287Z,54.98
2022-08-09T02:02:57.871Z,55.15
2022-08-09T02:05:38.043Z,55.40
2022-08-09T02:08:39.840Z,55.20
2022-08-09T02:10:56.309Z,55.54
2022-08-09T02:13:26.241Z,55.41
2022-08-09T02:16:03.723Z,55.64
2022-08-09T02:18:31.146Z,55.93
2022-08-09T02:20:57.081Z,55.93
2022-08-09T02:23:24.703Z,55.32
2022-08-09T02:25:55.711Z,55.70
2022-08-09T02:28:24.045Z,55.88
2022-08-09T02:30:50.277Z,55.28
2022-08-09T02:36:01.342Z,55.62
2022-08-09T02:38:29.770Z,55.37
2022-08-09T02:40:55.817Z,55.56
2022-08-09T02:43:21.984Z,56.12
2022-08-09T02:45:47.999Z,55.81
2022-08-09T02:48:30.777Z,56.44
2022-08-09T02:50:57.632Z,56.74
2022-08-09T02:53:25.966Z,57.26
2022-08-09T02:55:58.367Z,56.97
2022-08-09T02:58:35.783Z,57.01
2022-08-09T03:01:03.996Z,57.72
2022-08-09T03:03:37.271Z,57.27
2022-08-09T03:06:16.635Z,57.31
2022-08-09T03:08:43.172Z,57.31
2022-08-09T03:11:10.382Z,57.10
2022-08-09T03:13:43.819Z,56.91
2022-08-09T03:16:22.438Z,57.27
2022-08-09T03:18:50.629Z,57.23
2022-08-09T03:21:19.031Z,56.95
2022-08-09T03:24:04.333Z,56.32
2022-08-09T03:26:32.184Z,56.73
2022-08-09T03:28:58.242Z,56.76
2022-08-09T03:31:24.188Z,57.38
2022-08-09T03:33:54.395Z,57.24
2022-08-09T03:36:27.816Z,57.33
2022-08-09T03:38:54.021Z,57.41
2022-08-09T03:41:19.977Z,57.92
2022-08-09T03:44:07.668Z,57.54
2022-08-09T03:46:34.592Z,56.79
2022-08-09T03:49:03.907Z,56.35
2022-08-09T03:51:55.737Z,56.21
2022-08-09T03:54:29.539Z,56.22
2022-08-09T03:56:58.006Z,55.82
2022-08-09T03:59:42.841Z,55.73
2022-08-09T04:02:10.189Z,56.27
2022-08-09T04:04:38.761Z,56.86
2022-08-09T04:07:05.053Z,56.78
2022-08-09T04:09:47.610Z,56.39
2022-08-09T04:12:29.990Z,56.49
2022-08-09T04:15:02.147Z,56.20
2022-08-09T04:17:37.281Z,56.20
2022-08-09T04:20:05.283Z,56.38
2022-08-09T04:22:33.430Z,56.42
2022-08-09T04:24:59.623Z,56.73
2022-08-09T04:27:27.190Z,56.92
2022-08-09T04:29:55.077Z,57.32
2022-08-09T04:32:23.613Z,58.08
2022-08-09T04:35:01.215Z,57.92
2022-08-09T04:37:45.282Z,57.49
2022-08-09T04:40:12.043Z,57.55
2022-08-09T04:42:45.750Z,57.29
2022-08-09T04:45:14.477Z,57.42
2022-08-09T04:47:59.374Z,56.11
2022-08-09T04:50:34.763Z,55.45
2022-08-09T04:53:01.111Z,55.85
2022-08-09T04:55:27.096Z,56.09
2022-08-09T04:58:09.644Z,55.62
2022-08-09T05:00:36.130Z,55.04
2022-08-09T05:03:30.090Z,54.51
2022-08-09T05:05:51.760Z,54.47
2022-08-09T05:08:18.732Z,53.98
2022-08-09T05:10:44.858Z,53.76
2022-08-09T05:13:10.979Z,53.75
2022-08-09T05:15:39.220Z,53.22
2022-08-09T05:18:39.482Z,53.10
2022-08-09T05:20:59.590Z,52.76
2022-08-09T05:23:55.680Z,53.29
2022-08-09T05:26:11.507Z,51.66
2022-08-09T05:28:48.340Z,51.77
2022-08-09T05:31:18.077Z,51.89
2022-08-09T05:34:03.195Z,51.17
2022-08-09T05:36:29.150Z,50.08
2022-08-09T05:38:55.097Z,51.05
2022-08-09T05:41:21.821Z,51.34
2022-08-09T05:43:48.965Z,51.20
2022-08-09T05:46:15.520Z,51.66
2022-08-09T05:48:41.494Z,51.21
2022-08-09T05:51:29.981Z,51.27
2022-08-09T05:53:57.395Z,50.67
2022-08-09T05:56:25.890Z,50.89
2022-08-09T05:58:54.883Z,50.53
2022-08-09T06:01:23.871Z,49.88
2022-08-09T06:03:58.186Z,50.17
2022-08-09T06:06:24.605Z,50.45
2022-08-09T06:08:52.756Z,50.12
2022-08-09T06:11:18.924Z,49.67
2022-08-09T06:13:50.810Z,49.54
2022-08-09T06:16:17.239Z,49.23
2022-08-09T06:18:43.177Z,48.87
2022-08-09T06:21:10.329Z,48.90
2022-08-09T06:23:57.658Z,48.84
2022-08-09T06:26:28.217Z,48.02
2022-08-09T06:29:01.168Z,47.36
2022-08-09T06:31:39.925Z,47.33
2022-08-09T06:34:16.748Z,47.54
2022-08-09T06:36:44.018Z,47.02
2022-08-09T06:39:11.687Z,47.46
2022-08-09T06:42:07.762Z,46.95
2022-08-09T06:44:23.857Z,46.27
2022-08-09T06:46:49.853Z,45.35
2022-08-09T06:49:29.060Z,46.38
2022-08-09T06:52:07.925Z,46.19
2022-08-09T06:54:33.882Z,45.49
2022-08-09T06:57:00.076Z,45.11
2022-08-09T07:00:49.912Z,45.29
2022-08-09T07:02:14.059Z,44.24
2022-08-09T07:04:42.803Z,44.63
2022-08-09T07:07:11.980Z,43.32
2022-08-09T07:10:10.493Z,42.58
2022-08-09T07:12:42.279Z,43.33
2022-08-09T07:16:38.865Z,42.90
2022-08-09T07:18:01.970Z,42.70
2022-08-09T07:20:33.373Z,43.70
2022-08-09T07:23:18.134Z,42.68
2022-08-09T07:25:47.779Z,41.55
2022-08-09T07:28:18.949Z,41.29
2022-08-09T07:30:45.484Z,41.48
2022-08-09T07:33:16.613Z,40.76
2022-08-09T07:35:54.315Z,41.44
2022-08-09T07:38:20.716Z,41.48
2022-08-09T07:41:09.806Z,40.21
2022-08-09T07:43:41.194Z,40.64
2022-08-09T07:46:19.135Z,39.40
2022-08-09T07:48:45.606Z,37.93
2022-08-09T07:52:04.923Z,38.32
2022-08-09T07:54:08.487Z,37.80
2022-08-09T07:56:34.817Z,37.97
2022-08-09T07:59:05.313Z,35.61
2022-08-09T08:01:38.861Z,35.99
2022-08-09T08:04:10.487Z,35.84
2022-08-09T08:06:36.832Z,35.18
2022-08-09T08:09:34.310Z,35.66
2022-08-09T08:12:27.292Z,35.44
2022-08-09T08:14:43.458Z,34.50
2022-08-09T08:17:12.129Z,33.99
2022-08-09T08:19:52.055Z,36.38
2022-08-09T08:22:19.535Z,34.58
2022-08-09T08:24:51.026Z,34.94
2022-08-09T08:27:18.721Z,34.78
2022-08-09T08:29:48.407Z,34.04
2022-08-09T08:32:24.511Z,35.04
2022-08-09T08:34:58.567Z,35.70
2022-08-09T08:37:25.164Z,34.40
2022-08-09T08:40:08.114Z,34.08
2022-08-09T08:42:34.232Z,35.16
2022-08-09T08:45:00.806Z,34.91
2022-08-09T08:47:42.857Z,33.66
2022-08-09T08:50:10.935Z,32.38
2022-08-09T08:52:59.072Z,34.25
2022-08-09T08:55:26.115Z,33.11
2022-08-09T08:57:57.521Z,32.90
2022-08-09T09:00:27.844Z,33.29
2022-08-09T09:02:56.340Z,32.77
2022-08-09T09:05:22.706Z,32.29
2022-08-09T09:07:59.422Z,32.36
2022-08-09T09:10:25.369Z,32.01
2022-08-09T09:12:52.735Z,32.02
2022-08-09T09:15:21.552Z,31.54
2022-08-09T09:17:54.662Z,32.82
2022-08-09T09:20:21.582Z,33.60
2022-08-09T09:22:47.789Z,31.94
2022-08-09T09:26:04.509Z,32.52
2022-08-09T09:28:05.872Z,33.00
2022-08-09T09:30:41.098Z,33.32
2022-08-09T09:33:16.631Z,31.35
2022-08-09T09:35:53.046Z,30.41
2022-08-09T09:38:36.377Z,31.09
2022-08-09T09:41:03.103Z,30.04
2022-08-09T09:43:30.535Z,31.10
2022-08-09T09:48:53.731Z,31.90
2022-08-09T09:51:26.064Z,31.50
2022-08-09T09:54:10.570Z,30.92
2022-08-09T09:58:01.295Z,29.70
2022-08-09T09:59:35.364Z,30.54
2022-08-09T10:02:01.678Z,28.64
2022-08-09T10:04:30.868Z,29.50
2022-08-09T10:06:57.178Z,30.25
2022-08-09T10:09:24.238Z,29.32
2022-08-09T10:11:59.525Z,28.68
2022-08-09T10:14:34.043Z,29.46
2022-08-09T10:17:24.056Z,29.27
2022-08-09T10:19:46.039Z,29.47
2022-08-09T10:22:11.976Z,29.40
2022-08-09T10:24:37.923Z,30.20
2022-08-09T10:27:10.074Z,29.84
2022-08-09T10:30:49.319Z,28.41
2022-08-09T10:32:40.242Z,29.33
2022-08-09T10:35:08.276Z,30.10
2022-08-09T10:37:38.335Z,28.29
2022-08-09T10:40:05.115Z,28.55
2022-08-09T10:42:32.306Z,29.53
2022-08-09T10:45:00.000Z,27.97
2022-08-09T10:48:17.023Z,27.88
2022-08-09T10:50:14.851Z,28.54
2022-08-09T10:52:42.872Z,29.11
2022-08-09T10:55:10.929Z,27.62
2022-08-09T10:57:37.858Z,27.25
2022-08-09T11:00:07.751Z,28.22
2022-08-09T11:03:13.216Z,27.25
2022-08-09T11:05:25.069Z,27.68
2022-08-09T11:07:58.135Z,26.74
2022-08-09T11:10:26.834Z,27.35
2022-08-09T11:12:56.567Z,27.75
2022-08-09T11:15:23.769Z,28.25
2022-08-09T11:17:53.735Z,27.85
2022-08-09T11:20:28.651Z,26.03
2022-08-09T11:22:59.318Z,25.97
2022-08-09T11:25:36.266Z,26.46
2022-08-09T11:28:30.710Z,26.37
2022-08-09T11:30:57.569Z,25.32
2022-08-09T11:33:23.559Z,25.74
2022-08-09T11:35:52.052Z,25.27
2022-08-09T11:38:18.130Z,24.97
2022-08-09T11:40:44.466Z,26.01
2022-08-09T11:43:10.406Z,26.04
2022-08-09T11:45:42.384Z,26.41
2022-08-09T11:48:18.850Z,25.52
2022-08-09T11:50:56.581Z,27.00
2022-08-09T11:54:01.818Z,25.72
2022-08-09T11:56:23.199Z,27.53
2022-08-09T11:59:08.891Z,27.77
2022-08-09T12:02:15.866Z,26.54
2022-08-09T12:04:23.610Z,26.83
2022-08-09T12:06:55.737Z,26.65
2022-08-09T12:09:22.053Z,26.18
2022-08-09T12:12:02.938Z,25.73
2022-08-09T12:14:41.099Z,25.52
2022-08-09T12:17:34.216Z,25.89
2022-08-09T12:20:01.490Z,26.50
2022-08-09T12:22:27.487Z,27.66
2022-08-09T12:24:55.163Z,27.48
2022-08-09T12:29:13.979Z,28.36
2022-08-09T12:30:38.165Z,27.07
2022-08-09T12:32:56.810Z,26.23
2022-08-09T12:35:25.885Z,26.60
2022-08-09T12:37:54.083Z,26.83
2022-08-09T12:40:20.101Z,26.71
2022-08-09T12:42:46.462Z,26.88
2022-08-09T12:45:33.356Z,26.12
2022-08-09T12:48:03.874Z,26.35
2022-08-09T12:50:29.815Z,26.84
2022-08-09T12:53:08.232Z,26.08
2022-08-09T12:56:15.950Z,25.79
2022-08-09T12:58:24.170Z,26.23
2022-08-09T13:00:54.181Z,26.72
2022-08-09T13:03:24.524Z,25.65
2022-08-09T13:06:13.261Z,26.38
2022-08-09T13:08:43.594Z,24.91
2022-08-09T13:11:22.993Z,25.44
2022-08-09T13:14:37.011Z,24.70
2022-08-09T13:16:38.989Z,24.91
2022-08-09T13:19:11.099Z,26.55
2022-08-09T13:22:36.265Z,26.97
2022-08-09T13:24:52.631Z,26.27
2022-08-09T13:27:11.212Z,25.83
2022-08-09T13:30:03.199Z,25.78
2022-08-09T13:32:27.482Z,24.48
2022-08-09T13:35:03.133Z,24.71
2022-08-09T13:37:52.081Z,24.79
2022-08-09T13:41:45.748Z,24.36
2022-08-09T13:43:03.654Z,25.60
2022-08-09T13:45:32.625Z,25.47
2022-08-09T13:48:18.202Z,25.38
2022-08-09T13:50:45.059Z,26.51
2022-08-09T13:53:16.141Z,26.64
2022-08-09T13:55:43.043Z,26.64
2022-08-09T13:58:11.872Z,26.27
2022-08-09T14:00:48.202Z,26.89
2022-08-09T14:04:02.837Z,25.88
2022-08-09T14:06:05.179Z,26.12
2022-08-09T14:08:41.608Z,26.95
2022-08-09T14:11:16.113Z,25.86
2022-08-09T14:14:22.742Z,26.98
2022-08-09T14:16:29.848Z,26.44
2022-08-09T14:18:57.293Z,25.40
2022-08-09T14:21:24.534Z,25.72
2022-08-09T14:23:57.066Z,26.34
2022-08-09T14:26:23.563Z,26.60
2022-08-09T14:28:51.449Z,26.28
2022-08-09T14:31:17.536Z,24.92
2022-08-09T14:33:52.298Z,25.54
2022-08-09T14:36:21.183Z,25.15
2022-08-09T14:38:47.196Z,25.75
2022-08-09T14:41:24.003Z,26.78
2022-08-09T14:44:00.918Z,26.10
2022-08-09T14:46:59.033Z,26.55
2022-08-09T14:49:16.129Z,26.31
2022-08-09T14:51:42.800Z,26.58
2022-08-09T14:54:08.787Z,26.43
2022-08-09T14:56:34.730Z,26.87
2022-08-09T14:59:21.182Z,27.71
2022-08-09T15:01:47.223Z,27.36
2022-08-09T15:04:13.208Z,29.77
2022-08-09T15:06:40.470Z,27.88
2022-08-09T15:09:06.407Z,28.10
2022-08-09T15:11:32.354Z,29.11
2022-08-09T15:14:04.291Z,28.85
2022-08-09T15:16:31.404Z,29.57
2022-08-09T15:18:59.857Z,29.44
2022-08-09T15:22:00.540Z,30.39
2022-08-09T15:24:24.203Z,30.08
2022-08-09T15:26:53.564Z,31.25
2022-08-09T15:30:56.928Z,30.28
2022-08-09T15:32:05.564Z,31.74
2022-08-09T15:34:51.484Z,30.71
2022-08-09T15:37:19.250Z,31.00
2022-08-09T15:39:53.851Z,31.33
2022-08-09T15:42:21.883Z,31.49
2022-08-09T15:44:47.952Z,30.95
2022-08-09T15:47:21.576Z,31.27
2022-08-09T15:52:55.043Z,31.22
2022-08-09T15:55:30.787Z,30.99
2022-08-09T15:58:26.406Z,29.80
2022-08-09T16:00:52.637Z,30.01
2022-08-09T16:03:29.470Z,30.61
2022-08-09T16:06:04.698Z,29.46
2022-08-09T16:08:31.920Z,30.74
2022-08-09T16:10:58.879Z,30.62
2022-08-09T16:14:04.191Z,29.54
2022-08-09T16:16:18.759Z,28.67
2022-08-09T16:18:45.580Z,28.86
2022-08-09T16:21:11.673Z,29.28
2022-08-09T16:23:42.702Z,28.64
2022-08-09T16:26:34.901Z,28.27
2022-08-09T16:29:10.604Z,29.13
2022-08-09T16:32:11.111Z,29.02
2022-08-09T16:34:23.932Z,29.31
2022-08-09T16:36:49.921Z,28.00
2022-08-09T16:39:15.894Z,29.07
2022-08-09T16:42:03.016Z,28.28
2022-08-09T16:44:31.831Z,28.38
2022-08-09T16:47:01.947Z,28.56
2022-08-09T16:50:30.098Z,29.54
2022-08-09T16:52:16.286Z,29.48
2022-08-09T16:54:43.198Z,29.88
2022-08-09T16:57:10.633Z,29.99
2022-08-09T16:59:44.134Z,29.67
2022-08-09T17:02:23.453Z,29.88
2022-08-09T17:04:51.546Z,30.11
2022-08-09T17:08:46.216Z,30.17
2022-08-09T17:10:04.774Z,29.44
2022-08-09T17:12:30.794Z,31.10
2022-08-09T17:14:58.205Z,30.36
2022-08-09T17:17:26.777Z,32.84
2022-08-09T17:20:29.093Z,31.09
2022-08-09T17:22:39.631Z,31.63
2022-08-09T17:25:17.827Z,31.78
2022-08-09T17:27:49.527Z,31.40
2022-08-09T17:30:20.748Z,32.05
2022-08-09T17:32:46.734Z,32.77
2022-08-09T17:35:12.898Z,31.41
2022-08-09T17:38:02.133Z,33.25
2022-08-09T17:40:25.981Z,32.03
2022-08-09T17:42:55.773Z,32.50
2022-08-09T17:45:27.145Z,33.18
2022-08-09T17:47:54.726Z,33.96
2022-08-09T17:50:36.228Z,33.09
2022-08-09T17:53:04.765Z,33.98
2022-08-09T17:55:48.631Z,33.60
2022-08-09T17:58:24.328Z,34.36
2022-08-09T18:00:55.029Z,33.82
2022-08-09T18:03:22.802Z,34.71
2022-08-09T18:05:53.043Z,35.21
2022-08-09T18:08:19.346Z,35.11
2022-08-09T18:11:00.928Z,34.38
2022-08-09T18:13:39.133Z,35.57
2022-08-09T18:16:14.313Z,35.63
2022-08-09T18:18:43.126Z,36.21
2022-08-09T18:21:23.323Z,35.43
2022-08-09T18:24:10.773Z,34.80
2022-08-09T18:26:35.785Z,35.09
2022-08-09T18:30:38.745Z,34.64
2022-08-09T18:31:54.932Z,35.27
2022-08-09T18:34:23.863Z,35.95
2022-08-09T18:36:50.304Z,36.09
2022-08-09T18:39:19.227Z,36.66
2022-08-09T18:41:53.292Z,35.68
2022-08-09T18:44:19.742Z,35.69
2022-08-09T18:47:04.179Z,35.99
2022-08-09T18:49:43.690Z,35.78
2022-08-09T18:52:12.870Z,36.23
2022-08-09T18:54:38.841Z,36.22
2022-08-09T18:57:05.923Z,36.31
2022-08-09T18:59:37.170Z,36.23
2022-08-09T19:02:15.291Z,37.66
2022-08-09T19:04:41.350Z,36.78
2022-08-09T19:07:13.610Z,36.53
2022-08-09T19:35:59.882Z,39.66
2022-08-09T19:38:27.477Z,39.97
2022-08-09T19:40:53.585Z,39.23
2022-08-09T19:43:58.290Z,40.97
2022-08-09T19:46:05.548Z,39.40
2022-08-09T19:49:02.683Z,39.94
2022-08-09T19:51:17.733Z,39.99
2022-08-09T19:53:45.499Z,40.09
2022-08-09T19:56:15.687Z,40.12
2022-08-09T19:58:41.973Z,40.56
2022-08-09T20:01:22.633Z,41.58
2022-08-09T20:04:12.415Z,40.81
2022-08-09T20:06:35.494Z,40.47
2022-08-09T20:09:02.011Z,41.14
2022-08-09T20:11:43.453Z,39.88
2022-08-09T20:14:15.109Z,40.47
2022-08-09T20:16:54.402Z,40.68
2022-08-09T20:19:47.458Z,41.15
2022-08-09T20:22:09.931Z,41.19
2022-08-09T20:24:36.399Z,41.60
2022-08-09T20:27:08.547Z,41.58
2022-08-09T20:29:37.985Z,41.38
2022-08-09T20:32:28.840Z,42.09
2022-08-09T20:34:50.541Z,41.51
2022-08-09T20:37:17.529Z,41.98
2022-08-09T20:40:14.940Z,41.55
2022-08-09T20:42:33.644Z,42.33
2022-08-09T20:45:57.365Z,42.23
2022-08-09T20:47:48.357Z,42.04
2022-08-09T20:50:14.824Z,42.15
2022-08-09T20:53:00.679Z,42.68
2022-08-09T20:55:28.663Z,42.32
2022-08-09T20:58:20.204Z,42.92
2022-08-09T21:01:02.104Z,43.44
2022-08-09T21:03:39.211Z,42.81
2022-08-09T21:06:18.616Z,43.15
2022-08-09T21:08:49.816Z,43.66
2022-08-09T21:14:04.835Z,43.74
2022-08-09T21:16:31.232Z,43.92
2022-08-09T21:20:05.340Z,44.24
2022-08-09T21:24:38.211Z,44.27
2022-08-09T21:27:10.222Z,44.90
2022-08-09T21:42:05.398Z,45.66
